Time;durP1;ratioP1;P1;durP2;ratioP2;P2;SDS_P1;SDS_P2;PMS_P1;PMS_P2;Temp;Humidity;BMP_temperature;BMP_pressure;BME280_temperature;BME280_humidity;BME280_pressure;Samples;Min_cycle;Max_cycle;Signal;HPM_P1;HPM_P2
2023/03/23 00:00:30;;;;;;;3.90;3.17;;;;;;;;;;4978131;28;20705;-74
2023/03/23 00:03:34;;;;;;;4.63;2.87;;;;;;;;;;4993782;28;20205;-74
2023/03/23 00:06:38;;;;;;;4.47;3.10;;;;;;;;;;4981661;28;20186;-74
2023/03/23 00:09:42;;;;;;;9.23;3.73;;;;;;;;;;4993850;28;20182;-74
2023/03/23 00:12:49;;;;;;;6.03;3.17;;;;;;;;;;4993393;28;20213;-74
2023/03/23 00:15:53;;;;;;;5.40;3.20;;;;;;;;;;4993401;28;20198;-74
2023/03/23 00:19:00;;;;;;;7.10;3.40;;;;;;;;;;4993286;28;20587;-74
2023/03/23 00:22:04;;;;;;;4.57;3.37;;;;;;;;;;4981968;28;20599;-74
2023/03/23 00:25:08;;;;;;;4.97;2.97;;;;;;;;;;4994245;28;20178;-74
2023/03/23 00:28:14;;;;;;;4.87;3.13;;;;;;;;;;4993545;28;20218;-74
2023/03/23 00:31:19;;;;;;;5.60;3.20;;;;;;;;;;4970564;28;20182;-74
2023/03/23 00:34:24;;;;;;;5.87;3.10;;;;;;;;;;4981530;28;20186;-74
2023/03/23 00:37:28;;;;;;;4.67;3.10;;;;;;;;;;4993419;28;20222;-74
2023/03/23 00:40:35;;;;;;;4.27;3.17;;;;;;;;;;4981197;28;20213;-74
2023/03/23 00:43:39;;;;;;;6.30;3.40;;;;;;;;;;4994013;28;20210;-74
2023/03/23 00:46:45;;;;;;;5.77;3.17;;;;;;;;;;4981251;28;20190;-74
2023/03/23 00:49:52;;;;;;;7.27;3.30;;;;;;;;;;4993133;28;20198;-74
2023/03/23 00:52:56;;;;;;;6.30;3.37;;;;;;;;;;4981915;28;20640;-74
2023/03/23 00:56:00;;;;;;;5.70;3.33;;;;;;;;;;4981196;28;20182;-74
2023/03/23 00:59:05;;;;;;;4.37;3.30;;;;;;;;;;4981321;28;20218;-74
2023/03/23 01:02:09;;;;;;;6.20;3.77;;;;;;;;;;4996847;28;20671;-74
2023/03/23 01:05:15;;;;;;;4.83;3.53;;;;;;;;;;4972825;28;20234;-74
2023/03/23 01:08:21;;;;;;;6.50;3.63;;;;;;;;;;4976941;28;20218;-74
2023/03/23 01:11:25;;;;;;;6.23;3.77;;;;;;;;;;4965194;28;20183;-73
2023/03/23 01:14:28;;;;;;;5.47;3.40;;;;;;;;;;4965034;28;20183;-74
2023/03/23 01:17:33;;;;;;;5.03;3.67;;;;;;;;;;4977057;28;20230;-74
2023/03/23 01:20:38;;;;;;;5.07;3.53;;;;;;;;;;4976964;28;20536;-74
2023/03/23 01:23:43;;;;;;;5.30;3.83;;;;;;;;;;4976464;28;20528;-74
2023/03/23 01:26:47;;;;;;;5.47;3.60;;;;;;;;;;4965280;28;20187;-74
2023/03/23 01:29:51;;;;;;;4.67;3.67;;;;;;;;;;4965038;28;20187;-74
2023/03/23 01:32:55;;;;;;;4.73;3.90;;;;;;;;;;4976928;28;20190;-74
2023/03/23 01:36:05;;;;;;;4.80;3.73;;;;;;;;;;4984088;28;20214;-74
2023/03/23 01:39:10;;;;;;;6.10;3.60;;;;;;;;;;4983937;28;20206;-74
2023/03/23 01:42:16;;;;;;;8.50;3.90;;;;;;;;;;4965506;28;20230;-74
2023/03/23 01:45:20;;;;;;;5.30;4.10;;;;;;;;;;4964730;28;20187;-74
2023/03/23 01:48:27;;;;;;;6.70;3.70;;;;;;;;;;4964942;28;20576;-73
2023/03/23 01:51:34;;;;;;;5.70;3.90;;;;;;;;;;4965037;28;20637;-74
2023/03/23 01:54:40;;;;;;;7.03;3.87;;;;;;;;;;4995908;28;20532;-74
2023/03/23 01:57:45;;;;;;;7.13;3.63;;;;;;;;;;4972764;28;20218;-74
2023/03/23 02:00:55;;;;;;;6.37;3.80;;;;;;;;;;4972454;28;20209;-74
2023/03/23 02:03:59;;;;;;;6.43;4.27;;;;;;;;;;4964026;28;20210;-74
2023/03/23 02:07:03;;;;;;;6.20;3.53;;;;;;;;;;4953469;28;20191;-74
2023/03/23 02:10:08;;;;;;;6.70;4.00;;;;;;;;;;4960213;28;20655;-74
2023/03/23 02:13:14;;;;;;;5.80;3.60;;;;;;;;;;4983325;28;20202;-74
2023/03/23 02:16:52;;;;;;;7.23;4.13;;;;;;;;;;4972496;28;20521;-74
2023/03/23 02:20:43;;;;;;;5.83;3.60;;;;;;;;;;4983501;28;20186;-74
2023/03/23 02:24:26;;;;;;;6.03;3.97;;;;;;;;;;4972364;28;20187;-74
2023/03/23 02:27:31;;;;;;;6.83;3.50;;;;;;;;;;4963663;28;20226;-74
2023/03/23 02:31:08;;;;;;;4.57;3.57;;;;;;;;;;4963657;28;20175;-74
2023/03/23 02:34:42;;;;;;;5.07;3.97;;;;;;;;;;4969524;28;20175;-74
2023/03/23 02:37:51;;;;;;;5.17;3.63;;;;;;;;;;4967096;28;20226;-74
2023/03/23 02:40:59;;;;;;;5.07;3.37;;;;;;;;;;4974547;28;20195;-74
2023/03/23 02:44:05;;;;;;;5.63;4.00;;;;;;;;;;4963691;28;20183;-74
2023/03/23 02:47:15;;;;;;;5.67;3.50;;;;;;;;;;4963505;28;20219;-74
2023/03/23 02:50:23;;;;;;;6.00;3.53;;;;;;;;;;4975448;28;20195;-74
2023/03/23 02:53:28;;;;;;;6.47;3.70;;;;;;;;;;4975599;28;20187;-74
2023/03/23 02:56:35;;;;;;;4.63;3.70;;;;;;;;;;4952326;28;20179;-73
2023/03/23 02:59:41;;;;;;;5.27;3.93;;;;;;;;;;4974731;28;20179;-73
2023/03/23 03:02:52;;;;;;;6.93;3.90;;;;;;;;;;4963324;28;20215;-74
2023/03/23 03:06:41;;;;;;;5.07;3.77;;;;;;;;;;4974624;28;20183;-74
2023/03/23 03:10:16;;;;;;;5.07;3.83;;;;;;;;;;4982520;28;20190;-74
2023/03/23 03:13:45;;;;;;;5.90;3.60;;;;;;;;;;4971131;28;20210;-74
2023/03/23 03:17:20;;;;;;;4.43;3.07;;;;;;;;;;4982168;28;20178;-74
2023/03/23 03:20:27;;;;;;;4.13;3.17;;;;;;;;;;4988285;28;20190;-74
2023/03/23 03:23:34;;;;;;;3.73;3.30;;;;;;;;;;4970432;28;20202;-73
2023/03/23 03:26:47;;;;;;;6.20;3.30;;;;;;;;;;4971112;28;20678;-74
2023/03/23 03:30:11;;;;;;;7.67;4.30;;;;;;;;;;4981970;28;20202;-74
2023/03/23 03:33:20;;;;;;;5.20;4.10;;;;;;;;;;4971825;28;20183;-73
2023/03/23 03:36:27;;;;;;;5.43;4.03;;;;;;;;;;4971085;28;20190;-74
2023/03/23 03:39:36;;;;;;;7.03;4.00;;;;;;;;;;4981834;28;20186;-74
2023/03/23 03:42:43;;;;;;;5.80;4.50;;;;;;;;;;4993978;28;20225;-74
2023/03/23 03:45:47;;;;;;;5.13;4.43;;;;;;;;;;4970874;28;20184;-74
2023/03/23 03:48:52;;;;;;;6.97;4.07;;;;;;;;;;4982125;28;20223;-74
2023/03/23 03:51:59;;;;;;;5.73;4.23;;;;;;;;;;4981707;28;20655;-74
2023/03/23 03:55:12;;;;;;;6.17;4.30;;;;;;;;;;4981908;28;20186;-74
2023/03/23 03:58:19;;;;;;;6.30;4.40;;;;;;;;;;4960106;28;20221;-74
2023/03/23 04:01:47;;;;;;;4.43;3.87;;;;;;;;;;5000042;28;20214;-74
2023/03/23 04:04:52;;;;;;;6.63;4.30;;;;;;;;;;4980272;28;20214;-74
2023/03/23 04:08:01;;;;;;;5.60;3.90;;;;;;;;;;4986723;28;20301;-74
2023/03/23 04:11:08;;;;;;;6.13;3.93;;;;;;;;;;4962525;28;20187;-74
2023/03/23 04:14:12;;;;;;;5.00;3.70;;;;;;;;;;4962443;28;20179;-74
2023/03/23 04:17:20;;;;;;;6.37;3.50;;;;;;;;;;4962840;28;20226;-74
2023/03/23 04:20:24;;;;;;;5.40;3.97;;;;;;;;;;4962098;28;20190;-74
2023/03/23 04:23:33;;;;;;;6.17;4.37;;;;;;;;;;4962013;28;20226;-74
2023/03/23 04:26:39;;;;;;;6.93;3.87;;;;;;;;;;4973996;28;20191;-74
2023/03/23 04:29:57;;;;;;;6.17;3.57;;;;;;;;;;4962417;28;20191;-74
2023/03/23 04:33:26;;;;;;;5.10;3.87;;;;;;;;;;4979077;28;20214;-74
2023/03/23 04:36:33;;;;;;;4.37;3.63;;;;;;;;;;4985015;28;20190;-74
2023/03/23 04:39:41;;;;;;;9.87;4.50;;;;;;;;;;4996880;28;20183;-74
2023/03/23 04:42:46;;;;;;;7.33;4.07;;;;;;;;;;4985179;28;20671;-74
2023/03/23 04:46:21;;;;;;;5.10;3.80;;;;;;;;;;4994027;28;20186;-74
2023/03/23 04:49:26;;;;;;;5.30;3.30;;;;;;;;;;4984921;28;20214;-74
2023/03/23 04:52:44;;;;;;;7.53;3.63;;;;;;;;;;4973553;28;20202;-74
2023/03/23 04:55:49;;;;;;;6.50;3.97;;;;;;;;;;4973555;28;20182;-74
2023/03/23 04:58:55;;;;;;;6.40;3.93;;;;;;;;;;4984920;28;20559;-75
2023/03/23 05:02:19;;;;;;;5.00;3.50;;;;;;;;;;4992756;28;20576;-75
2023/03/23 05:05:27;;;;;;;4.97;3.50;;;;;;;;;;4965454;28;20648;-74
2023/03/23 05:08:32;;;;;;;7.20;3.63;;;;;;;;;;4965048;28;20695;-75
2023/03/23 05:11:37;;;;;;;4.40;3.43;;;;;;;;;;4965142;28;20198;-75
2023/03/23 05:14:42;;;;;;;5.23;3.40;;;;;;;;;;4965254;28;20183;-75
2023/03/23 05:17:52;;;;;;;5.13;3.83;;;;;;;;;;4965783;28;20707;-75
2023/03/23 05:21:03;;;;;;;6.97;3.30;;;;;;;;;;4988556;28;20205;-75
2023/03/23 05:24:12;;;;;;;7.07;3.17;;;;;;;;;;4974401;28;20203;-75
2023/03/23 05:27:18;;;;;;;4.93;3.37;;;;;;;;;;4964694;28;20222;-75
2023/03/23 05:30:25;;;;;;;4.07;2.63;;;;;;;;;;4975736;28;20670;-75
2023/03/23 05:33:30;;;;;;;3.03;2.40;;;;;;;;;;4975732;28;20183;-75
2023/03/23 05:36:36;;;;;;;3.90;2.20;;;;;;;;;;4975745;28;20191;-75
2023/03/23 05:39:44;;;;;;;2.83;2.10;;;;;;;;;;4976796;28;20187;-74
2023/03/23 05:43:11;;;;;;;3.90;1.97;;;;;;;;;;4970014;28;20214;-76
2023/03/23 05:46:43;;;;;;;2.20;1.83;;;;;;;;;;4968877;28;20206;-75
2023/03/23 05:49:47;;;;;;;2.20;1.73;;;;;;;;;;4975716;28;20556;-74
2023/03/23 05:52:55;;;;;;;4.67;2.00;;;;;;;;;;4985254;28;20202;-75
2023/03/23 05:56:03;;;;;;;2.93;1.70;;;;;;;;;;4983661;28;20186;-75
2023/03/23 05:59:23;;;;;;;1.83;1.60;;;;;;;;;;4973107;28;20624;-75
2023/03/23 06:02:30;;;;;;;3.87;2.10;;;;;;;;;;4984174;28;20214;-75
2023/03/23 06:05:35;;;;;;;3.50;2.10;;;;;;;;;;4983490;28;20524;-75
2023/03/23 06:08:39;;;;;;;4.23;2.17;;;;;;;;;;4982239;28;20222;-75
2023/03/23 06:11:44;;;;;;;2.50;2.30;;;;;;;;;;4983348;28;20206;-76
2023/03/23 06:15:24;;;;;;;3.13;2.60;;;;;;;;;;4956447;28;20203;-76
2023/03/23 06:18:40;;;;;;;4.33;2.60;;;;;;;;;;4994470;28;20226;-75
2023/03/23 06:22:05;;;;;;;3.50;2.57;;;;;;;;;;4994694;28;20187;-75
2023/03/23 06:25:20;;;;;;;3.63;2.63;;;;;;;;;;4994038;28;20199;-75
2023/03/23 06:28:26;;;;;;;4.83;3.27;;;;;;;;;;4981761;28;20694;-75
2023/03/23 06:31:33;;;;;;;4.93;3.17;;;;;;;;;;4982301;28;20183;-75
2023/03/23 06:34:43;;;;;;;3.83;2.87;;;;;;;;;;4972258;28;20178;-75
2023/03/23 06:38:22;;;;;;;5.43;3.03;;;;;;;;;;4930176;28;20697;-75
2023/03/23 06:41:32;;;;;;;4.57;3.27;;;;;;;;;;4982667;28;20202;-74
2023/03/23 06:44:37;;;;;;;5.00;3.10;;;;;;;;;;4982979;28;20187;-75
2023/03/23 06:47:41;;;;;;;4.60;3.00;;;;;;;;;;4982699;28;20217;-75
2023/03/23 06:50:46;;;;;;;4.80;2.90;;;;;;;;;;4994593;28;20186;-75
2023/03/23 06:53:52;;;;;;;4.63;3.53;;;;;;;;;;4971939;28;20642;-75
2023/03/23 06:56:57;;;;;;;5.83;3.00;;;;;;;;;;4971068;28;20365;-75
2023/03/23 07:00:04;;;;;;;4.60;2.97;;;;;;;;;;4982415;28;20206;-74
2023/03/23 07:03:09;;;;;;;8.53;3.37;;;;;;;;;;4982218;28;20229;-75
2023/03/23 07:06:17;;;;;;;4.10;2.97;;;;;;;;;;4982650;28;20209;-74
2023/03/23 07:09:27;;;;;;;3.40;2.80;;;;;;;;;;4983052;28;20191;-74
2023/03/23 07:12:32;;;;;;;5.20;2.60;;;;;;;;;;4982167;28;20210;-75
2023/03/23 07:15:38;;;;;;;5.53;2.97;;;;;;;;;;4982501;28;20179;-75
2023/03/23 07:18:43;;;;;;;5.87;3.20;;;;;;;;;;4981962;28;20221;-75
2023/03/23 07:21:48;;;;;;;7.30;2.90;;;;;;;;;;4982247;28;20210;-75
2023/03/23 07:24:53;;;;;;;7.63;2.73;;;;;;;;;;4971178;28;20224;-75
2023/03/23 07:28:04;;;;;;;4.40;2.53;;;;;;;;;;4982180;28;20217;-75
2023/03/23 07:31:09;;;;;;;4.10;2.70;;;;;;;;;;4994560;28;20619;-74
2023/03/23 07:34:14;;;;;;;4.53;2.60;;;;;;;;;;4970733;28;20183;-75
2023/03/23 07:37:41;;;;;;;5.30;2.63;;;;;;;;;;4993963;28;20707;-74
2023/03/23 07:40:46;;;;;;;5.00;2.70;;;;;;;;;;4981756;28;20191;-74
2023/03/23 07:43:53;;;;;;;3.40;2.50;;;;;;;;;;4971488;28;20210;-75
2023/03/23 07:47:08;;;;;;;3.77;2.57;;;;;;;;;;4981806;28;20225;-74
2023/03/23 07:50:13;;;;;;;4.00;2.40;;;;;;;;;;4981558;28;20186;-75
2023/03/23 07:53:21;;;;;;;3.50;2.73;;;;;;;;;;4981695;28;20520;-75
2023/03/23 07:56:32;;;;;;;2.60;1.93;;;;;;;;;;4981514;28;20190;-75
2023/03/23 07:59:44;;;;;;;4.87;2.77;;;;;;;;;;4970810;28;20186;-75
2023/03/23 08:02:52;;;;;;;4.93;2.97;;;;;;;;;;4970615;28;20699;-74
2023/03/23 08:06:11;;;;;;;3.83;2.63;;;;;;;;;;4981578;28;20191;-75
2023/03/23 08:09:28;;;;;;;3.43;2.57;;;;;;;;;;4972257;28;20202;-74
2023/03/23 08:12:36;;;;;;;5.40;2.20;;;;;;;;;;4997457;28;20209;-75
2023/03/23 08:15:56;;;;;;;3.33;2.57;;;;;;;;;;4997865;28;20186;-75
2023/03/23 08:19:26;;;;;;;3.30;2.53;;;;;;;;;;4985402;28;20190;-75
2023/03/23 08:22:41;;;;;;;4.43;2.60;;;;;;;;;;4974300;28;20186;-75
2023/03/23 08:26:08;;;;;;;8.80;2.93;;;;;;;;;;4985465;28;20186;-75
2023/03/23 08:29:38;;;;;;;3.80;2.17;;;;;;;;;;4986853;28;20680;-75
2023/03/23 08:33:10;;;;;;;2.07;1.73;;;;;;;;;;4996953;28;20186;-75
2023/03/23 08:36:27;;;;;;;4.70;2.30;;;;;;;;;;4975710;28;20190;-74
2023/03/23 08:39:45;;;;;;;3.80;2.20;;;;;;;;;;4973850;28;20644;-74
2023/03/23 08:42:51;;;;;;;6.40;2.00;;;;;;;;;;4997235;28;20182;-74
2023/03/23 08:46:34;;;;;;;5.03;1.77;;;;;;;;;;4956418;29;20179;-74
2023/03/23 08:50:01;;;;;;;3.97;2.20;;;;;;;;;;4953567;28;20577;-75
2023/03/23 08:53:24;;;;;;;4.67;1.97;;;;;;;;;;4996896;28;20182;-75
2023/03/23 08:56:39;;;;;;;3.13;2.30;;;;;;;;;;4973492;28;20190;-74
2023/03/23 09:00:15;;;;;;;3.60;2.27;;;;;;;;;;4997109;28;20623;-74
2023/03/23 09:03:34;;;;;;;5.53;2.17;;;;;;;;;;4973266;28;20205;-74
2023/03/23 09:06:56;;;;;;;3.97;2.00;;;;;;;;;;4964618;28;20520;-74
2023/03/23 09:10:02;;;;;;;5.87;2.30;;;;;;;;;;4984391;28;20186;-74
2023/03/23 09:13:06;;;;;;;3.90;2.60;;;;;;;;;;4996593;28;20205;-74
2023/03/23 09:16:10;;;;;;;3.20;2.30;;;;;;;;;;4996447;28;20187;-75
2023/03/23 09:19:15;;;;;;;4.77;2.40;;;;;;;;;;4984323;28;20182;-76
2023/03/23 09:22:23;;;;;;;4.63;2.30;;;;;;;;;;4983783;28;20206;-76
2023/03/23 09:25:27;;;;;;;7.30;2.50;;;;;;;;;;4984223;28;20227;-76
2023/03/23 09:28:31;;;;;;;4.10;3.00;;;;;;;;;;4984018;28;20217;-76
2023/03/23 09:31:36;;;;;;;4.10;2.50;;;;;;;;;;4996482;28;20206;-76
2023/03/23 09:34:40;;;;;;;7.87;4.27;;;;;;;;;;4996125;28;20198;-76
2023/03/23 09:37:45;;;;;;;8.10;3.23;;;;;;;;;;4995996;28;20296;-76
2023/03/23 09:40:59;;;;;;;3.57;2.27;;;;;;;;;;4995891;28;20190;-76
2023/03/23 09:44:25;;;;;;;3.37;2.23;;;;;;;;;;4984189;28;20568;-76
2023/03/23 09:47:43;;;;;;;4.50;2.57;;;;;;;;;;4996091;28;20599;-73
2023/03/23 09:50:56;;;;;;;3.93;2.03;;;;;;;;;;4995926;28;20190;-76
2023/03/23 09:54:17;;;;;;;8.90;1.60;;;;;;;;;;4984022;28;20182;-76
2023/03/23 09:57:52;;;;;;;2.10;1.87;;;;;;;;;;4995748;28;20561;-76
2023/03/23 10:01:08;;;;;;;4.40;2.33;;;;;;;;;;4978570;28;20210;-76
2023/03/23 10:04:43;;;;;;;4.47;1.70;;;;;;;;;;4995792;28;20210;-76
2023/03/23 10:07:48;;;;;;;3.37;1.67;;;;;;;;;;4995581;28;20226;-75
2023/03/23 10:11:21;;;;;;;3.90;1.50;;;;;;;;;;4995573;28;20178;-76
2023/03/23 10:14:33;;;;;;;2.07;1.40;;;;;;;;;;4995437;28;20513;-76
2023/03/23 10:17:54;;;;;;;2.70;1.77;;;;;;;;;;4995220;28;20714;-76
2023/03/23 10:21:03;;;;;;;2.43;1.60;;;;;;;;;;4995569;28;20187;-76
2023/03/23 10:24:11;;;;;;;2.57;1.63;;;;;;;;;;4995198;28;20210;-76
2023/03/23 10:27:24;;;;;;;1.77;1.50;;;;;;;;;;4995158;28;20226;-76
2023/03/23 10:30:35;;;;;;;2.07;1.50;;;;;;;;;;4983479;28;20178;-76
2023/03/23 10:33:44;;;;;;;2.10;1.50;;;;;;;;;;4995004;28;20548;-76
2023/03/23 10:37:17;;;;;;;1.97;1.40;;;;;;;;;;4994689;28;20202;-76
2023/03/23 10:40:24;;;;;;;6.47;1.83;;;;;;;;;;4988507;28;20186;-76
2023/03/23 10:43:29;;;;;;;4.53;1.60;;;;;;;;;;4994622;28;20186;-75
2023/03/23 10:46:53;;;;;;;3.27;1.47;;;;;;;;;;4995110;28;20182;-76
2023/03/23 10:50:05;;;;;;;4.00;1.60;;;;;;;;;;4994777;28;20183;-76
2023/03/23 10:53:47;;;;;;;3.53;1.50;;;;;;;;;;4994968;28;20194;-76
2023/03/23 10:56:51;;;;;;;1.77;1.37;;;;;;;;;;4994742;28;20202;-76
2023/03/23 11:00:05;;;;;;;3.27;1.50;;;;;;;;;;4994236;28;20202;-76
2023/03/23 11:03:13;;;;;;;1.77;1.37;;;;;;;;;;4994143;28;20194;-76
2023/03/23 11:06:27;;;;;;;3.93;1.40;;;;;;;;;;4971491;28;20186;-76
2023/03/23 11:09:50;;;;;;;6.13;1.47;;;;;;;;;;4971292;28;20182;-77
2023/03/23 11:12:58;;;;;;;2.30;1.50;;;;;;;;;;4994313;28;20548;-77
2023/03/23 11:16:02;;;;;;;2.17;1.33;;;;;;;;;;4994605;28;20182;-77
2023/03/23 11:19:20;;;;;;;3.67;1.40;;;;;;;;;;4982560;28;20568;-76
2023/03/23 11:22:31;;;;;;;3.10;1.47;;;;;;;;;;4994191;28;20190;-77
2023/03/23 11:25:52;;;;;;;3.13;1.30;;;;;;;;;;4981944;28;20218;-74
2023/03/23 11:29:01;;;;;;;2.07;1.20;;;;;;;;;;4993855;28;20226;-74
2023/03/23 11:32:11;;;;;;;2.00;1.30;;;;;;;;;;4994378;28;20182;-77
2023/03/23 11:35:22;;;;;;;5.67;1.50;;;;;;;;;;4981943;28;20179;-75
2023/03/23 11:38:27;;;;;;;1.67;1.30;;;;;;;;;;4981898;28;20616;-76
2023/03/23 11:41:34;;;;;;;3.00;1.33;;;;;;;;;;4981574;28;20186;-76
2023/03/23 11:44:45;;;;;;;2.97;1.40;;;;;;;;;;4981659;28;20213;-76
2023/03/23 11:48:01;;;;;;;2.50;1.57;;;;;;;;;;4993817;28;20225;-76
2023/03/23 11:51:11;;;;;;;2.73;1.30;;;;;;;;;;4981686;28;20541;-77
2023/03/23 11:54:19;;;;;;;4.47;1.40;;;;;;;;;;4994006;28;20186;-74
2023/03/23 11:57:24;;;;;;;2.83;1.37;;;;;;;;;;4993602;28;20226;-76
2023/03/23 12:00:28;;;;;;;3.30;1.87;;;;;;;;;;5021301;23;20241;-73
2023/03/23 12:03:46;;;;;;;3.70;1.30;;;;;;;;;;5013474;28;20515;-71
2023/03/23 12:07:03;;;;;;;2.77;1.40;;;;;;;;;;5001343;28;20186;-72
2023/03/23 12:10:26;;;;;;;1.87;1.43;;;;;;;;;;5013186;28;20185;-71
2023/03/23 12:13:52;;;;;;;3.43;1.20;;;;;;;;;;5001585;28;20508;-72
2023/03/23 12:17:15;;;;;;;2.33;1.20;;;;;;;;;;4989971;28;20182;-72
2023/03/23 12:20:23;;;;;;;3.00;1.50;;;;;;;;;;5001233;28;20186;-72
2023/03/23 12:23:52;;;;;;;3.30;1.27;;;;;;;;;;5000873;28;20190;-71
2023/03/23 12:27:05;;;;;;;4.43;1.60;;;;;;;;;;5012920;28;20209;-71
2023/03/23 12:30:23;;;;;;;2.87;1.30;;;;;;;;;;5013272;28;20189;-71
2023/03/23 12:33:49;;;;;;;2.80;1.40;;;;;;;;;;5000975;28;20186;-71
2023/03/23 12:37:18;;;;;;;3.13;1.17;;;;;;;;;;5013135;28;20193;-71
2023/03/23 12:40:48;;;;;;;2.07;1.20;;;;;;;;;;5012879;28;20185;-71
2023/03/23 12:44:00;;;;;;;3.00;1.20;;;;;;;;;;5000986;28;20185;-71
2023/03/23 12:47:16;;;;;;;2.17;1.50;;;;;;;;;;5013002;28;20189;-71
2023/03/23 12:50:45;;;;;;;1.80;1.20;;;;;;;;;;4989838;28;20524;-71
2023/03/23 12:53:57;;;;;;;3.60;1.20;;;;;;;;;;5013273;28;20186;-71
2023/03/23 12:57:14;;;;;;;3.10;1.30;;;;;;;;;;5003514;28;20186;-71
2023/03/23 13:00:22;;;;;;;5.33;1.30;;;;;;;;;;5026313;28;20204;-71
2023/03/23 13:03:33;;;;;;;2.17;1.30;;;;;;;;;;5024134;28;20197;-71
2023/03/23 13:06:43;;;;;;;4.00;1.40;;;;;;;;;;5035981;28;20182;-71
2023/03/23 13:10:12;;;;;;;1.67;1.20;;;;;;;;;;5036388;28;20181;-71
2023/03/23 13:13:19;;;;;;;2.47;1.30;;;;;;;;;;5024160;28;20185;-71
2023/03/23 13:16:41;;;;;;;2.77;1.30;;;;;;;;;;5023994;28;20196;-71
2023/03/23 13:20:11;;;;;;;1.67;1.10;;;;;;;;;;5035750;28;20189;-70
2023/03/23 13:23:26;;;;;;;2.87;1.30;;;;;;;;;;5012780;28;20192;-71
2023/03/23 13:26:30;;;;;;;1.37;1.10;;;;;;;;;;5035688;28;20177;-71
2023/03/23 13:29:34;;;;;;;3.53;1.63;;;;;;;;;;5023934;28;20526;-71
2023/03/23 13:32:40;;;;;;;1.93;1.10;;;;;;;;;;5035563;28;20565;-71
2023/03/23 13:35:45;;;;;;;5.57;1.43;;;;;;;;;;5035732;28;20173;-71
2023/03/23 13:38:50;;;;;;;3.53;1.20;;;;;;;;;;5023160;28;20225;-71
2023/03/23 13:41:59;;;;;;;2.90;1.50;;;;;;;;;;5035819;28;20189;-71
2023/03/23 13:45:38;;;;;;;3.23;1.60;;;;;;;;;;5035433;28;20217;-71
2023/03/23 13:49:07;;;;;;;4.50;1.70;;;;;;;;;;5022923;28;20217;-71
2023/03/23 13:52:16;;;;;;;3.10;1.30;;;;;;;;;;5041189;28;20184;-71
2023/03/23 13:55:21;;;;;;;5.10;2.00;;;;;;;;;;5035125;28;20557;-71
2023/03/23 13:58:26;;;;;;;3.50;1.57;;;;;;;;;;5022794;28;20224;-71
2023/03/23 14:01:41;;;;;;;5.40;1.67;;;;;;;;;;5023071;28;20189;-71
2023/03/23 14:04:49;;;;;;;2.80;1.60;;;;;;;;;;5022848;28;20689;-71
2023/03/23 14:08:11;;;;;;;3.60;1.40;;;;;;;;;;5034556;28;20291;-70
2023/03/23 14:11:28;;;;;;;3.73;1.30;;;;;;;;;;5035179;28;20189;-70
2023/03/23 14:14:35;;;;;;;1.63;1.40;;;;;;;;;;5035467;28;20192;-71
2023/03/23 14:17:44;;;;;;;10.63;2.10;;;;;;;;;;5022571;28;20697;-71
2023/03/23 14:20:48;;;;;;;9.87;4.30;;;;;;;;;;5034866;28;20516;-71
2023/03/23 14:23:54;;;;;;;3.00;1.50;;;;;;;;;;5022696;28;20184;-71
2023/03/23 14:27:23;;;;;;;2.23;1.67;;;;;;;;;;5022516;28;20276;-71
2023/03/23 14:30:35;;;;;;;22.63;2.47;;;;;;;;;;5034970;28;20180;-71
2023/03/23 14:33:41;;;;;;;6.97;1.40;;;;;;;;;;5022701;28;20193;-71
2023/03/23 14:36:45;;;;;;;4.43;1.37;;;;;;;;;;5022261;28;20197;-71
2023/03/23 14:39:53;;;;;;;1.67;1.50;;;;;;;;;;5034235;28;20184;-70
2023/03/23 14:42:57;;;;;;;3.23;1.40;;;;;;;;;;5011062;28;20181;-71
2023/03/23 14:46:08;;;;;;;1.70;1.30;;;;;;;;;;5022360;28;20213;-71
2023/03/23 14:49:16;;;;;;;3.07;1.60;;;;;;;;;;5010774;28;20181;-71
2023/03/23 14:52:24;;;;;;;2.17;1.27;;;;;;;;;;5022389;28;20181;-71
2023/03/23 14:55:30;;;;;;;17.33;3.30;;;;;;;;;;5033925;28;20185;-70
2023/03/23 14:58:35;;;;;;;4.10;1.63;;;;;;;;;;5033955;28;20220;-71
2023/03/23 15:01:41;;;;;;;3.07;1.30;;;;;;;;;;5022158;28;20626;-71
2023/03/23 15:04:50;;;;;;;5.03;1.87;;;;;;;;;;5034053;28;20669;-70
2023/03/23 15:07:59;;;;;;;3.63;1.67;;;;;;;;;;5034052;28;20216;-71
2023/03/23 15:11:12;;;;;;;2.17;1.30;;;;;;;;;;5010297;28;20189;-70
2023/03/23 15:14:20;;;;;;;3.00;1.20;;;;;;;;;;5021975;28;20188;-71
2023/03/23 15:17:30;;;;;;;4.37;1.50;;;;;;;;;;5032659;28;20685;-71
2023/03/23 15:20:49;;;;;;;2.17;1.30;;;;;;;;;;5033643;28;20181;-71
2023/03/23 15:23:53;;;;;;;3.00;1.40;;;;;;;;;;5010169;28;20189;-71
2023/03/23 15:27:17;;;;;;;4.97;1.63;;;;;;;;;;5033503;28;20208;-71
2023/03/23 15:30:21;;;;;;;5.80;1.57;;;;;;;;;;5033651;28;20189;-71
2023/03/23 15:33:27;;;;;;;4.67;1.60;;;;;;;;;;5033320;28;20185;-70
2023/03/23 15:36:34;;;;;;;2.30;1.37;;;;;;;;;;5033526;28;20180;-71
2023/03/23 15:39:40;;;;;;;3.53;1.40;;;;;;;;;;5021529;28;20531;-71
2023/03/23 15:42:45;;;;;;;5.13;1.70;;;;;;;;;;5033930;28;20181;-71
2023/03/23 15:45:55;;;;;;;7.37;1.83;;;;;;;;;;5033205;28;20212;-71
2023/03/23 15:48:59;;;;;;;4.00;1.87;;;;;;;;;;5033106;28;20224;-71
2023/03/23 15:52:04;;;;;;;9.13;2.10;;;;;;;;;;5033175;28;20538;-71
2023/03/23 15:55:21;;;;;;;9.57;2.70;;;;;;;;;;5033394;28;20177;-70
2023/03/23 15:58:26;;;;;;;1.93;1.30;;;;;;;;;;5032876;28;20224;-71
2023/03/23 16:01:30;;;;;;;2.53;1.53;;;;;;;;;;5032706;28;20201;-71
2023/03/23 16:04:34;;;;;;;9.03;2.53;;;;;;;;;;5021004;28;20189;-71
2023/03/23 16:07:38;;;;;;;5.63;1.67;;;;;;;;;;5020614;28;20220;-71
2023/03/23 16:10:42;;;;;;;5.13;1.80;;;;;;;;;;5032733;28;20184;-71
2023/03/23 16:13:47;;;;;;;3.90;1.67;;;;;;;;;;5033226;28;20192;-71
2023/03/23 16:16:51;;;;;;;2.77;1.83;;;;;;;;;;5033144;28;20181;-70
2023/03/23 16:19:55;;;;;;;5.47;1.83;;;;;;;;;;5020835;28;20180;-71
2023/03/23 16:22:59;;;;;;;3.13;1.60;;;;;;;;;;5009398;28;20181;-72
2023/03/23 16:26:04;;;;;;;15.27;2.60;;;;;;;;;;5020654;28;20546;-71
2023/03/23 16:29:11;;;;;;;4.17;1.80;;;;;;;;;;5008983;28;20680;-71
2023/03/23 16:32:15;;;;;;;3.43;1.77;;;;;;;;;;5036724;28;20185;-71
2023/03/23 16:35:21;;;;;;;3.23;1.57;;;;;;;;;;5024238;28;20185;-72
2023/03/23 16:38:24;;;;;;;2.53;1.77;;;;;;;;;;5036581;28;20216;-70
2023/03/23 16:41:29;;;;;;;3.03;2.00;;;;;;;;;;5024147;28;20209;-70
2023/03/23 16:44:34;;;;;;;3.90;1.80;;;;;;;;;;5036837;28;20177;-71
2023/03/23 16:47:39;;;;;;;4.10;1.80;;;;;;;;;;5036426;28;20708;-71
2023/03/23 16:50:44;;;;;;;4.90;1.70;;;;;;;;;;5024039;28;20181;-70
2023/03/23 16:53:48;;;;;;;2.43;1.67;;;;;;;;;;5036599;28;20633;-71
2023/03/23 16:56:52;;;;;;;2.20;1.57;;;;;;;;;;5023926;28;20207;-70
2023/03/23 16:59:57;;;;;;;4.97;1.93;;;;;;;;;;5012667;28;20204;-71
2023/03/23 17:03:01;;;;;;;4.23;1.77;;;;;;;;;;5035905;28;20185;-71
2023/03/23 17:06:05;;;;;;;3.37;1.97;;;;;;;;;;5035814;28;20208;-71
2023/03/23 17:09:09;;;;;;;2.10;1.80;;;;;;;;;;5035718;28;20212;-70
2023/03/23 17:12:13;;;;;;;3.40;2.10;;;;;;;;;;5035849;28;20188;-71
2023/03/23 17:15:17;;;;;;;4.83;2.07;;;;;;;;;;5036258;28;20185;-71
2023/03/23 17:18:23;;;;;;;2.67;1.60;;;;;;;;;;5023687;28;20228;-71
2023/03/23 17:21:27;;;;;;;2.50;1.90;;;;;;;;;;5035882;28;20193;-71
2023/03/23 17:24:31;;;;;;;2.30;1.50;;;;;;;;;;5012104;28;20201;-70
2023/03/23 17:27:36;;;;;;;2.00;1.60;;;;;;;;;;5035805;28;20236;-71
2023/03/23 17:30:42;;;;;;;3.47;2.10;;;;;;;;;;5035697;28;20523;-71
2023/03/23 17:33:46;;;;;;;3.50;1.77;;;;;;;;;;5034877;28;20181;-71
2023/03/23 17:36:50;;;;;;;2.97;1.60;;;;;;;;;;5035542;28;20522;-70
2023/03/23 17:39:54;;;;;;;6.57;2.00;;;;;;;;;;5023390;28;20196;-70
2023/03/23 17:42:58;;;;;;;3.47;1.80;;;;;;;;;;5034673;28;20656;-71
2023/03/23 17:46:02;;;;;;;2.73;2.00;;;;;;;;;;5035367;28;20224;-71
2023/03/23 17:49:06;;;;;;;4.60;2.10;;;;;;;;;;5035027;28;20220;-71
2023/03/23 17:52:11;;;;;;;4.33;1.67;;;;;;;;;;5035555;28;20204;-71
2023/03/23 17:55:15;;;;;;;4.07;2.03;;;;;;;;;;5035023;28;20530;-71
2023/03/23 17:58:20;;;;;;;7.80;6.77;;;;;;;;;;5035105;28;20212;-71
2023/03/23 18:01:24;;;;;;;3.50;2.13;;;;;;;;;;5035057;28;20212;-71
2023/03/23 18:04:28;;;;;;;3.77;2.20;;;;;;;;;;5035145;28;20180;-71
2023/03/23 18:07:32;;;;;;;5.43;3.70;;;;;;;;;;5034895;28;20225;-70
2023/03/23 18:10:38;;;;;;;9.13;5.60;;;;;;;;;;5034861;28;20181;-71
2023/03/23 18:13:42;;;;;;;4.57;3.00;;;;;;;;;;5022931;28;20177;-71
2023/03/23 18:16:47;;;;;;;10.07;2.43;;;;;;;;;;5035034;28;20173;-71
2023/03/23 18:19:53;;;;;;;4.23;2.10;;;;;;;;;;5034449;28;20197;-73
2023/03/23 18:22:57;;;;;;;4.27;2.23;;;;;;;;;;5022542;28;20192;-72
2023/03/23 18:26:03;;;;;;;3.50;2.27;;;;;;;;;;5022265;28;20217;-72
2023/03/23 18:29:07;;;;;;;3.53;1.90;;;;;;;;;;5011411;28;20220;-72
2023/03/23 18:32:11;;;;;;;3.77;2.07;;;;;;;;;;5034529;28;20184;-72
2023/03/23 18:35:16;;;;;;;6.30;2.20;;;;;;;;;;5022092;28;20181;-72
2023/03/23 18:38:20;;;;;;;3.70;2.10;;;;;;;;;;5021971;28;20212;-72
2023/03/23 18:41:25;;;;;;;4.07;1.90;;;;;;;;;;5010888;28;20184;-71
2023/03/23 18:44:29;;;;;;;6.10;2.40;;;;;;;;;;5034624;28;20630;-72
2023/03/23 18:47:33;;;;;;;3.40;2.30;;;;;;;;;;5034027;28;20240;-72
2023/03/23 18:50:37;;;;;;;4.50;2.37;;;;;;;;;;5021806;28;20189;-72
2023/03/23 18:53:41;;;;;;;5.33;2.50;;;;;;;;;;5021997;28;20185;-71
2023/03/23 18:56:46;;;;;;;2.83;2.30;;;;;;;;;;5034047;28;20180;-71
2023/03/23 18:59:50;;;;;;;3.20;2.17;;;;;;;;;;5033608;28;20208;-72
2023/03/23 19:02:54;;;;;;;2.93;2.30;;;;;;;;;;5021456;28;20219;-72